createdAt,value
2022-12-16T00:01:27.787Z,1.00
2022-12-16T00:03:57.863Z,1.00
2022-12-16T00:06:29.073Z,1.00
2022-12-16T00:08:59.991Z,1.00
2022-12-16T00:11:29.281Z,1.00
2022-12-16T00:13:57.995Z,1.00
2022-12-16T00:16:26.786Z,1.00
2022-12-16T00:18:55.575Z,1.00
2022-12-16T00:21:28.920Z,1.00
2022-12-16T00:23:59.309Z,1.00
2022-12-16T00:26:29.927Z,1.00
2022-12-16T00:28:58.997Z,1.00
2022-12-16T00:31:28.868Z,1.00
2022-12-16T00:33:58.704Z,1.00
2022-12-16T00:36:27.575Z,1.00
2022-12-16T00:38:56.491Z,1.00
2022-12-16T00:41:26.678Z,1.00
2022-12-16T00:43:55.392Z,1.00
2022-12-16T00:46:24.295Z,1.00
2022-12-16T00:48:53.043Z,1.00
2022-12-16T00:51:23.950Z,1.00
2022-12-16T00:53:52.737Z,1.00
2022-12-16T00:56:22.952Z,1.00
2022-12-16T00:58:53.239Z,1.00
2022-12-16T01:01:23.742Z,1.00
2022-12-16T01:03:52.521Z,1.00
2022-12-16T01:06:21.279Z,1.00
2022-12-16T01:08:49.941Z,1.00
2022-12-16T01:11:20.856Z,1.00
2022-12-16T01:13:55.126Z,1.00
2022-12-16T01:16:24.174Z,1.00
2022-12-16T01:18:53.622Z,1.00
2022-12-16T01:21:24.307Z,1.00
2022-12-16T01:23:55.067Z,1.00
2022-12-16T01:26:24.144Z,1.00
2022-12-16T01:28:55.191Z,1.00
2022-12-16T01:31:24.671Z,1.00
2022-12-16T01:33:53.513Z,1.00
2022-12-16T01:36:22.658Z,1.00
2022-12-16T01:38:51.818Z,1.00
2022-12-16T01:41:20.868Z,1.00
2022-12-16T01:43:49.701Z,1.00
2022-12-16T01:46:24.377Z,1.00
2022-12-16T01:48:58.672Z,1.00
2022-12-16T01:51:31.950Z,1.00
2022-12-16T01:54:05.336Z,1.00
2022-12-16T01:56:35.982Z,1.00
2022-12-16T01:59:05.433Z,1.00
2022-12-16T02:01:35.995Z,1.00
2022-12-16T02:04:06.002Z,1.00
2022-12-16T02:06:35.131Z,1.00
2022-12-16T02:09:10.227Z,1.00
2022-12-16T02:11:56.670Z,1.00
2022-12-16T02:14:39.347Z,1.00
2022-12-16T02:17:16.605Z,1.00
2022-12-16T02:20:25.980Z,1.00
2022-12-16T02:23:14.283Z,1.00
2022-12-16T02:26:03.587Z,1.00
2022-12-16T02:28:55.094Z,1.00
2022-12-16T02:31:32.818Z,1.00
2022-12-16T02:34:11.911Z,1.00
2022-12-16T02:36:58.417Z,1.00
2022-12-16T02:39:32.926Z,1.00
2022-12-16T02:42:09.320Z,1.00
2022-12-16T02:44:45.662Z,1.00
2022-12-16T02:47:15.775Z,1.00
2022-12-16T02:49:49.299Z,1.00
2022-12-16T02:52:20.545Z,1.00
2022-12-16T02:54:51.268Z,1.00
2022-12-16T02:57:42.891Z,1.00
2022-12-16T03:00:14.212Z,58.70
2022-12-16T03:02:54.892Z,1.00
2022-12-16T03:05:28.101Z,1.00
2022-12-16T03:08:00.069Z,1.00
2022-12-16T03:10:32.216Z,1.00
2022-12-16T03:13:02.991Z,1.00
2022-12-16T03:15:35.143Z,1.00
2022-12-16T03:18:07.897Z,1.00
2022-12-16T03:20:41.808Z,1.00
2022-12-16T03:23:14.170Z,1.00
2022-12-16T03:25:45.298Z,1.00
2022-12-16T03:28:27.911Z,1.00
2022-12-16T03:31:03.261Z,1.00
2022-12-16T03:33:39.320Z,1.00
2022-12-16T03:36:13.505Z,1.00
2022-12-16T03:38:43.037Z,1.00
2022-12-16T03:41:12.553Z,1.00
2022-12-16T03:43:41.476Z,1.00
2022-12-16T03:46:12.374Z,1.00
2022-12-16T03:48:49.423Z,1.00
2022-12-16T03:51:18.572Z,4.90
2022-12-16T03:53:47.700Z,1.00
2022-12-16T03:56:16.619Z,1.00
2022-12-16T03:58:47.181Z,1.00
2022-12-16T04:01:16.575Z,1.00
2022-12-16T04:03:45.495Z,1.00
2022-12-16T04:06:18.876Z,1.00
2022-12-16T04:08:48.292Z,1.00
2022-12-16T04:11:34.570Z,1.00
2022-12-16T04:14:20.829Z,1.00
2022-12-16T04:17:07.462Z,1.00
2022-12-16T04:19:56.131Z,1.00
2022-12-16T04:22:45.549Z,1.00
2022-12-16T04:25:18.127Z,1.00
2022-12-16T04:27:47.923Z,1.00
2022-12-16T04:30:20.934Z,1.00
2022-12-16T04:33:10.729Z,1.00
2022-12-16T04:35:57.302Z,1.00
2022-12-16T04:38:45.295Z,1.00
2022-12-16T04:41:31.320Z,1.00
2022-12-16T04:44:17.950Z,1.00
2022-12-16T04:47:04.306Z,1.00
2022-12-16T04:49:50.335Z,1.00
2022-12-16T04:52:37.012Z,1.00
2022-12-16T04:55:26.039Z,1.00
2022-12-16T04:58:13.102Z,1.00
2022-12-16T05:00:59.493Z,1.00
2022-12-16T05:03:46.404Z,1.00
2022-12-16T05:06:33.191Z,1.00
2022-12-16T05:09:19.391Z,1.00
2022-12-16T05:12:07.707Z,99.90
2022-12-16T05:14:53.844Z,99.90
2022-12-16T05:17:41.092Z,99.90
2022-12-16T05:20:27.812Z,99.90
2022-12-16T05:23:15.096Z,99.90
2022-12-16T05:26:01.444Z,99.90
2022-12-16T05:28:49.116Z,99.90
2022-12-16T05:31:35.297Z,99.90
2022-12-16T05:34:21.609Z,99.90
2022-12-16T05:37:04.166Z,99.90
2022-12-16T05:39:50.271Z,99.90
2022-12-16T05:42:36.551Z,99.90
2022-12-16T05:45:24.942Z,99.90
2022-12-16T05:48:11.385Z,99.90
2022-12-16T05:50:57.714Z,99.90
2022-12-16T05:53:44.040Z,99.90
2022-12-16T05:56:30.353Z,99.90
2022-12-16T05:59:16.578Z,99.90
2022-12-16T06:02:03.923Z,99.90
2022-12-16T06:04:49.954Z,99.90
2022-12-16T06:07:38.354Z,1.00
2022-12-16T06:10:24.297Z,1.00
2022-12-16T06:13:10.652Z,1.00
2022-12-16T06:16:09.144Z,1.00
2022-12-16T06:18:56.824Z,1.00
2022-12-16T06:21:42.982Z,1.00
2022-12-16T06:24:28.922Z,1.00
2022-12-16T06:27:15.136Z,1.00
2022-12-16T06:30:01.136Z,1.00
2022-12-16T06:32:47.428Z,1.00
2022-12-16T06:35:35.135Z,1.00
2022-12-16T06:38:21.230Z,10.10
2022-12-16T06:41:19.052Z,1.00
2022-12-16T06:44:04.933Z,1.00
2022-12-16T06:46:51.264Z,1.00
2022-12-16T06:49:37.497Z,1.00
2022-12-16T06:52:24.852Z,1.00
2022-12-16T06:55:11.083Z,1.00
2022-12-16T06:57:57.205Z,1.00
2022-12-16T07:00:43.336Z,1.00
2022-12-16T07:03:35.577Z,1.00
2022-12-16T07:06:21.804Z,1.00
2022-12-16T07:09:17.741Z,1.00
2022-12-16T07:12:03.913Z,99.90
2022-12-16T07:14:51.495Z,99.90
2022-12-16T07:17:37.478Z,99.90
2022-12-16T07:20:24.161Z,99.90
2022-12-16T07:23:16.152Z,99.90
2022-12-16T07:26:08.246Z,99.90
2022-12-16T07:28:54.396Z,1.00
2022-12-16T07:31:46.994Z,1.00
2022-12-16T07:34:38.590Z,99.90
2022-12-16T07:37:26.814Z,99.90
2022-12-16T07:40:12.884Z,99.90
2022-12-16T07:43:04.965Z,1.00
2022-12-16T07:45:51.489Z,63.20
2022-12-16T07:48:38.835Z,99.90
2022-12-16T07:51:25.047Z,99.90
2022-12-16T07:54:17.437Z,99.90
2022-12-16T07:57:03.560Z,1.00
2022-12-16T07:59:51.229Z,1.00
2022-12-16T08:02:37.680Z,1.00
2022-12-16T08:05:24.202Z,1.00
2022-12-16T08:08:12.721Z,42.30
2022-12-16T08:10:58.874Z,99.90
2022-12-16T08:13:44.956Z,1.00
2022-12-16T08:16:32.434Z,99.90
2022-12-16T08:19:18.575Z,41.70
2022-12-16T08:22:04.804Z,19.30
2022-12-16T08:24:53.537Z,1.00
2022-12-16T08:27:42.284Z,1.00
2022-12-16T08:30:29.229Z,99.90
2022-12-16T08:33:19.525Z,99.90
2022-12-16T08:36:06.240Z,99.90
2022-12-16T08:38:53.499Z,99.90
2022-12-16T08:41:48.034Z,99.90
2022-12-16T08:44:34.309Z,1.00
2022-12-16T08:47:20.514Z,1.00
2022-12-16T08:50:10.641Z,1.00
2022-12-16T08:52:58.866Z,44.70
2022-12-16T08:55:45.247Z,91.30
2022-12-16T08:58:31.418Z,99.90
2022-12-16T09:01:29.542Z,32.90
2022-12-16T09:04:15.682Z,1.00
2022-12-16T09:07:02.909Z,1.00
2022-12-16T09:09:49.154Z,1.00
2022-12-16T09:12:35.296Z,1.00
2022-12-16T09:15:21.496Z,1.00
2022-12-16T09:18:13.491Z,1.00
2022-12-16T09:21:00.035Z,1.00
2022-12-16T09:23:47.718Z,1.00
2022-12-16T09:26:33.827Z,1.00
2022-12-16T09:29:20.266Z,1.00
2022-12-16T09:32:06.501Z,1.00
2022-12-16T09:34:52.551Z,1.00
2022-12-16T09:37:38.752Z,1.00
2022-12-16T09:40:41.188Z,1.00
2022-12-16T09:43:41.730Z,1.00
2022-12-16T09:46:37.526Z,1.00
2022-12-16T09:49:35.103Z,1.00
2022-12-16T09:52:22.806Z,1.00
2022-12-16T09:55:09.125Z,1.00
2022-12-16T09:57:56.935Z,1.00
2022-12-16T10:00:45.177Z,1.00
2022-12-16T10:03:38.389Z,1.00
2022-12-16T10:06:33.701Z,1.00
2022-12-16T10:09:32.345Z,1.00
2022-12-16T10:12:25.522Z,1.00
2022-12-16T10:15:27.086Z,10.60
2022-12-16T10:18:15.743Z,99.90
2022-12-16T10:21:07.183Z,99.90
2022-12-16T10:24:02.036Z,1.00
2022-12-16T10:26:59.540Z,99.90
2022-12-16T10:29:48.632Z,99.90
2022-12-16T10:32:45.923Z,10.30
2022-12-16T10:35:42.872Z,1.00
2022-12-16T10:38:40.616Z,1.00
2022-12-16T10:41:32.365Z,1.00
2022-12-16T10:44:20.576Z,1.00
2022-12-16T10:47:06.827Z,1.00
2022-12-16T10:49:54.812Z,1.00
2022-12-16T10:52:41.340Z,1.00
2022-12-16T10:55:40.545Z,1.00
2022-12-16T10:58:41.418Z,99.90
2022-12-16T11:01:41.560Z,99.90
2022-12-16T11:04:46.267Z,99.90
2022-12-16T11:07:46.066Z,99.90
2022-12-16T11:10:48.131Z,99.90
2022-12-16T11:13:41.264Z,99.90
2022-12-16T11:16:33.875Z,99.90
2022-12-16T11:19:20.541Z,99.90
2022-12-16T11:22:07.287Z,34.00
2022-12-16T11:24:54.752Z,99.90
2022-12-16T11:27:45.491Z,99.90
2022-12-16T11:30:41.786Z,99.90
2022-12-16T11:33:36.026Z,99.90
2022-12-16T11:36:33.311Z,99.90
2022-12-16T11:39:20.483Z,99.90
2022-12-16T11:42:10.859Z,90.50
2022-12-16T11:45:02.127Z,1.00
2022-12-16T11:47:58.775Z,33.90
2022-12-16T11:51:01.542Z,20.70
2022-12-16T11:53:52.705Z,1.00
2022-12-16T11:56:43.229Z,89.60
2022-12-16T11:59:40.942Z,99.90
2022-12-16T12:02:33.089Z,1.00
2022-12-16T12:05:19.047Z,1.00
2022-12-16T12:08:14.813Z,20.90
2022-12-16T12:11:16.021Z,99.90
2022-12-16T12:14:16.444Z,99.90
2022-12-16T12:17:18.722Z,99.90
2022-12-16T12:20:17.646Z,99.90
2022-12-16T12:23:04.442Z,99.90
2022-12-16T12:25:56.572Z,1.00
2022-12-16T12:28:52.077Z,99.90
2022-12-16T12:31:51.976Z,99.90
2022-12-16T12:34:47.757Z,99.90
2022-12-16T12:37:41.366Z,99.90
2022-12-16T12:40:54.451Z,1.00
2022-12-16T12:43:55.808Z,1.00
2022-12-16T12:46:47.228Z,99.90
2022-12-16T12:49:45.022Z,1.00
2022-12-16T12:52:44.189Z,1.00
2022-12-16T12:55:40.900Z,19.70
2022-12-16T12:58:29.144Z,99.90
2022-12-16T13:01:18.144Z,99.90
2022-12-16T13:04:09.065Z,1.00
2022-12-16T13:06:57.477Z,99.90
2022-12-16T13:09:48.488Z,1.00
2022-12-16T13:12:45.036Z,1.00
2022-12-16T13:15:39.710Z,1.00
2022-12-16T13:18:50.722Z,1.00
2022-12-16T13:22:09.380Z,99.90
2022-12-16T13:25:07.419Z,99.90
2022-12-16T13:28:17.394Z,1.00
2022-12-16T13:31:25.292Z,1.00
2022-12-16T13:34:12.931Z,1.00
2022-12-16T13:37:00.979Z,1.00
2022-12-16T13:39:49.907Z,1.00
2022-12-16T13:43:12.747Z,99.90
2022-12-16T13:46:01.042Z,99.90
2022-12-16T13:48:58.679Z,1.00
2022-12-16T13:52:15.273Z,99.90
2022-12-16T13:55:08.864Z,99.90
2022-12-16T13:58:13.810Z,1.00
2022-12-16T14:01:02.060Z,99.90
2022-12-16T14:03:59.932Z,99.90
2022-12-16T14:06:50.196Z,99.90
2022-12-16T14:09:48.362Z,99.90
2022-12-16T14:12:59.106Z,99.90
2022-12-16T14:15:51.139Z,99.90
2022-12-16T14:18:47.878Z,99.90
2022-12-16T14:21:41.599Z,99.90
2022-12-16T14:24:35.638Z,99.90
2022-12-16T14:27:30.502Z,99.90
2022-12-16T14:30:18.740Z,99.90
2022-12-16T14:33:06.906Z,99.90
2022-12-16T14:35:53.203Z,99.90
2022-12-16T14:38:44.695Z,99.90
2022-12-16T14:41:32.936Z,1.00
2022-12-16T14:44:19.412Z,99.90
2022-12-16T14:47:10.656Z,99.90
2022-12-16T14:50:09.057Z,99.90
2022-12-16T14:52:55.364Z,99.90
2022-12-16T14:55:47.164Z,99.90
2022-12-16T14:58:34.463Z,99.90
2022-12-16T15:01:24.050Z,26.70
2022-12-16T15:04:12.359Z,2.00
2022-12-16T15:07:01.266Z,73.50
2022-12-16T15:09:51.270Z,1.00
2022-12-16T15:12:41.788Z,1.00
2022-12-16T15:15:33.704Z,1.00
2022-12-16T15:18:20.906Z,54.90
2022-12-16T15:21:11.756Z,50.20
2022-12-16T15:23:59.915Z,1.00
2022-12-16T15:26:48.846Z,1.00
2022-12-16T15:30:08.155Z,99.90
2022-12-16T15:32:55.100Z,1.00
2022-12-16T15:35:48.310Z,41.50
2022-12-16T15:38:45.953Z,1.00
2022-12-16T15:41:41.941Z,99.90
2022-12-16T15:44:36.241Z,1.00
2022-12-16T15:47:23.025Z,99.90
2022-12-16T15:50:09.648Z,99.90
2022-12-16T15:52:58.229Z,1.00
2022-12-16T15:55:49.182Z,99.90
2022-12-16T15:58:41.482Z,99.90
2022-12-16T16:01:28.912Z,1.00
2022-12-16T16:04:16.437Z,99.90
2022-12-16T16:07:07.063Z,99.90
2022-12-16T16:09:55.257Z,99.90
2022-12-16T16:12:44.112Z,99.90
2022-12-16T16:15:33.530Z,99.90
2022-12-16T16:18:21.997Z,99.90
2022-12-16T16:21:08.893Z,1.00
2022-12-16T16:23:55.478Z,1.00
2022-12-16T16:26:46.602Z,99.90
2022-12-16T16:29:34.320Z,99.90
2022-12-16T16:32:21.377Z,99.90
2022-12-16T16:35:07.664Z,1.00
2022-12-16T16:37:53.953Z,1.00
2022-12-16T16:40:51.992Z,1.00
2022-12-16T16:43:39.473Z,1.00
2022-12-16T16:46:52.997Z,1.00
2022-12-16T16:49:42.764Z,1.00
2022-12-16T16:52:33.252Z,99.90
2022-12-16T16:55:21.459Z,99.90
2022-12-16T16:58:07.444Z,49.60
2022-12-16T17:00:53.959Z,83.50
2022-12-16T17:03:42.220Z,1.00
2022-12-16T17:06:28.725Z,1.00
2022-12-16T17:09:15.018Z,1.00
2022-12-16T17:12:01.304Z,1.00
2022-12-16T17:14:47.434Z,99.90
2022-12-16T17:17:33.574Z,99.90
2022-12-16T17:20:21.135Z,1.00
2022-12-16T17:23:07.214Z,1.00
2022-12-16T17:25:54.635Z,1.00
2022-12-16T17:28:42.932Z,99.90
2022-12-16T17:31:30.173Z,99.90
2022-12-16T17:34:16.415Z,99.90
2022-12-16T17:37:04.237Z,99.90
2022-12-16T17:39:51.241Z,1.00
2022-12-16T17:42:39.506Z,1.00
2022-12-16T17:45:29.752Z,99.90
2022-12-16T17:48:12.372Z,99.90
2022-12-16T17:50:58.546Z,99.90
2022-12-16T17:53:49.843Z,99.90
2022-12-16T17:56:36.034Z,1.00
2022-12-16T17:59:22.212Z,1.00
2022-12-16T18:02:09.160Z,1.00
2022-12-16T18:04:55.934Z,1.00
2022-12-16T18:07:42.958Z,1.00
2022-12-16T18:10:30.582Z,1.00
2022-12-16T18:13:17.353Z,1.00
2022-12-16T18:16:09.926Z,1.00
2022-12-16T18:19:01.876Z,1.00
2022-12-16T18:21:48.242Z,1.00
2022-12-16T18:24:34.372Z,1.00
2022-12-16T18:27:23.303Z,1.00
2022-12-16T18:30:09.897Z,1.00
2022-12-16T18:32:56.434Z,1.00
2022-12-16T18:35:42.832Z,1.00
2022-12-16T18:38:29.533Z,1.00
2022-12-16T18:41:22.024Z,1.00
2022-12-16T18:44:10.765Z,1.00
2022-12-16T18:46:56.220Z,1.00
2022-12-16T18:49:42.433Z,1.00
2022-12-16T18:52:28.637Z,1.00
2022-12-16T18:55:15.345Z,1.00
2022-12-16T18:58:12.273Z,1.00
2022-12-16T19:01:10.239Z,1.00
2022-12-16T19:03:57.531Z,1.00
2022-12-16T19:06:43.585Z,1.00
2022-12-16T19:09:30.450Z,1.00
2022-12-16T19:12:16.849Z,1.00
2022-12-16T19:15:03.430Z,1.00
2022-12-16T19:17:51.220Z,99.90
2022-12-16T19:20:38.343Z,99.90
2022-12-16T19:23:25.001Z,99.90
2022-12-16T19:26:16.140Z,99.90
2022-12-16T19:29:02.839Z,99.90
2022-12-16T19:31:49.612Z,99.90
2022-12-16T19:34:37.472Z,99.90
2022-12-16T19:37:23.679Z,1.00
2022-12-16T19:40:10.181Z,1.00
2022-12-16T19:42:57.231Z,99.90
2022-12-16T19:45:43.868Z,99.90
2022-12-16T19:48:29.986Z,99.90
2022-12-16T19:51:18.202Z,99.90
2022-12-16T19:54:04.462Z,99.90
2022-12-16T19:56:51.576Z,99.90
2022-12-16T19:59:38.422Z,99.90
2022-12-16T20:02:26.056Z,99.90
2022-12-16T20:05:12.893Z,97.10
2022-12-16T20:08:03.060Z,99.90
2022-12-16T20:10:49.561Z,99.90
2022-12-16T20:13:35.802Z,99.90
2022-12-16T20:16:22.611Z,99.90
2022-12-16T20:19:09.084Z,99.90
2022-12-16T20:25:04.139Z,99.90
2022-12-16T20:27:52.971Z,99.90
2022-12-16T20:30:48.390Z,99.90
2022-12-16T20:33:37.767Z,99.90
2022-12-16T20:36:26.333Z,99.90
2022-12-16T20:39:16.779Z,99.90
2022-12-16T20:42:05.584Z,99.90
2022-12-16T20:44:52.101Z,43.40
2022-12-16T20:47:40.708Z,1.00
2022-12-16T20:50:27.339Z,52.50
2022-12-16T20:53:13.815Z,44.70
2022-12-16T20:56:08.275Z,99.90
2022-12-16T20:58:58.583Z,99.90
2022-12-16T21:02:01.518Z,49.00
2022-12-16T21:04:50.954Z,99.90
2022-12-16T21:07:45.605Z,1.00
2022-12-16T21:10:34.450Z,99.90
2022-12-16T21:13:26.541Z,99.90
2022-12-16T21:16:18.684Z,99.90
2022-12-16T21:19:14.566Z,99.90
2022-12-16T21:22:02.417Z,24.70
2022-12-16T21:24:49.582Z,99.90
2022-12-16T21:27:36.378Z,99.90
2022-12-16T21:30:23.302Z,99.90
2022-12-16T21:33:14.127Z,99.90
2022-12-16T21:36:05.640Z,99.90
2022-12-16T21:39:00.083Z,99.90
2022-12-16T21:41:47.706Z,99.90
2022-12-16T21:44:37.104Z,99.90
2022-12-16T21:47:24.869Z,99.90
2022-12-16T21:50:12.945Z,99.90
2022-12-16T21:53:02.061Z,44.00
2022-12-16T21:55:49.685Z,1.00
2022-12-16T21:58:35.874Z,99.90
2022-12-16T22:01:23.485Z,99.90
2022-12-16T22:04:10.159Z,99.90
2022-12-16T22:06:57.555Z,99.90
2022-12-16T22:09:44.423Z,1.00
2022-12-16T22:12:31.547Z,1.00
2022-12-16T22:15:17.913Z,1.00
2022-12-16T22:18:04.160Z,1.00
2022-12-16T22:20:50.412Z,99.90
2022-12-16T22:23:38.420Z,99.90
2022-12-16T22:26:24.702Z,36.20
2022-12-16T22:29:11.441Z,4.90
2022-12-16T22:31:57.602Z,1.00
2022-12-16T22:34:44.584Z,99.90
2022-12-16T22:37:31.705Z,99.90
2022-12-16T22:40:19.732Z,1.00
2022-12-16T22:43:07.571Z,99.90
2022-12-16T22:45:54.131Z,1.00
2022-12-16T22:48:43.147Z,1.00
2022-12-16T22:51:30.345Z,1.00
2022-12-16T22:54:17.055Z,99.90
2022-12-16T22:57:05.424Z,61.00
2022-12-16T22:59:52.032Z,13.60
2022-12-16T23:02:38.425Z,99.90
2022-12-16T23:05:27.945Z,99.90
2022-12-16T23:08:11.423Z,1.00
2022-12-16T23:10:58.345Z,99.90
2022-12-16T23:13:47.606Z,1.00
2022-12-16T23:16:34.368Z,1.00
2022-12-16T23:19:20.908Z,1.00
2022-12-16T23:22:08.047Z,1.00
2022-12-16T23:24:55.047Z,1.00
2022-12-16T23:27:43.449Z,55.90
2022-12-16T23:30:31.191Z,99.90
2022-12-16T23:33:17.277Z,99.90
2022-12-16T23:36:03.339Z,99.90
2022-12-16T23:38:48.785Z,59.60
2022-12-16T23:41:35.043Z,99.90
2022-12-16T23:44:21.319Z,1.00
2022-12-16T23:47:08.785Z,1.00
2022-12-16T23:49:56.635Z,1.00
2022-12-16T23:52:48.378Z,1.00
2022-12-16T23:55:34.616Z,99.90
2022-12-16T23:58:22.108Z,99.90
